sensor_id;sensor_type;location;lat;lon;timestamp;P1;durP1;ratioP1;P2;durP2;ratioP2
32319;SDS011;19080;51.750;5.888;2023-12-28T00:02:09;2.50;;;2.08;;
32319;SDS011;19080;51.750;5.888;2023-12-28T00:04:36;3.38;;;2.28;;
32319;SDS011;19080;51.750;5.888;2023-12-28T00:07:03;2.17;;;1.98;;
32319;SDS011;19080;51.750;5.888;2023-12-28T00:09:30;2.72;;;2.05;;
32319;SDS011;19080;51.750;5.888;2023-12-28T00:11:57;5.68;;;2.45;;
32319;SDS011;19080;51.750;5.888;2023-12-28T00:14:24;3.65;;;2.22;;
32319;SDS011;19080;51.750;5.888;2023-12-28T00:16:51;4.45;;;2.03;;
32319;SDS011;19080;51.750;5.888;2023-12-28T00:19:18;2.80;;;2.28;;
32319;SDS011;19080;51.750;5.888;2023-12-28T00:21:47;2.38;;;2.17;;
32319;SDS011;19080;51.750;5.888;2023-12-28T00:24:19;3.03;;;2.28;;
32319;SDS011;19080;51.750;5.888;2023-12-28T00:26:46;2.30;;;2.10;;
32319;SDS011;19080;51.750;5.888;2023-12-28T00:29:13;4.35;;;2.28;;
32319;SDS011;19080;51.750;5.888;2023-12-28T00:31:40;4.60;;;2.10;;
32319;SDS011;19080;51.750;5.888;2023-12-28T00:34:07;4.38;;;2.58;;
32319;SDS011;19080;51.750;5.888;2023-12-28T00:36:34;3.08;;;2.30;;
32319;SDS011;19080;51.750;5.888;2023-12-28T00:39:02;5.30;;;2.25;;
32319;SDS011;19080;51.750;5.888;2023-12-28T00:41:29;5.47;;;2.17;;
32319;SDS011;19080;51.750;5.888;2023-12-28T00:43:56;3.40;;;2.50;;
32319;SDS011;19080;51.750;5.888;2023-12-28T00:46:22;4.10;;;2.42;;
32319;SDS011;19080;51.750;5.888;2023-12-28T00:48:49;6.43;;;2.58;;
32319;SDS011;19080;51.750;5.888;2023-12-28T00:51:16;3.22;;;2.22;;
32319;SDS011;19080;51.750;5.888;2023-12-28T00:53:43;4.75;;;2.45;;
32319;SDS011;19080;51.750;5.888;2023-12-28T00:56:10;4.35;;;1.98;;
32319;SDS011;19080;51.750;5.888;2023-12-28T00:58:40;4.35;;;2.42;;
32319;SDS011;19080;51.750;5.888;2023-12-28T01:01:08;3.53;;;2.70;;
32319;SDS011;19080;51.750;5.888;2023-12-28T01:03:35;3.15;;;2.10;;
32319;SDS011;19080;51.750;5.888;2023-12-28T01:06:02;4.10;;;2.47;;
32319;SDS011;19080;51.750;5.888;2023-12-28T01:08:28;4.20;;;2.13;;
32319;SDS011;19080;51.750;5.888;2023-12-28T01:10:55;5.70;;;2.60;;
32319;SDS011;19080;51.750;5.888;2023-12-28T01:13:22;4.55;;;2.72;;
32319;SDS011;19080;51.750;5.888;2023-12-28T01:15:49;4.88;;;2.13;;
32319;SDS011;19080;51.750;5.888;2023-12-28T01:18:16;4.68;;;2.35;;
32319;SDS011;19080;51.750;5.888;2023-12-28T01:20:42;3.22;;;2.00;;
32319;SDS011;19080;51.750;5.888;2023-12-28T01:23:09;3.38;;;2.40;;
32319;SDS011;19080;51.750;5.888;2023-12-28T01:25:36;5.53;;;2.55;;
32319;SDS011;19080;51.750;5.888;2023-12-28T01:28:03;3.88;;;2.28;;
32319;SDS011;19080;51.750;5.888;2023-12-28T01:30:31;3.33;;;2.78;;
32319;SDS011;19080;51.750;5.888;2023-12-28T01:32:57;5.15;;;2.55;;
32319;SDS011;19080;51.750;5.888;2023-12-28T01:35:24;3.03;;;2.50;;
32319;SDS011;19080;51.750;5.888;2023-12-28T01:37:51;3.85;;;2.13;;
32319;SDS011;19080;51.750;5.888;2023-12-28T01:40:18;4.03;;;2.45;;
32319;SDS011;19080;51.750;5.888;2023-12-28T01:42:45;4.07;;;2.53;;
32319;SDS011;19080;51.750;5.888;2023-12-28T01:45:11;4.38;;;2.40;;
32319;SDS011;19080;51.750;5.888;2023-12-28T01:47:38;3.65;;;2.40;;
32319;SDS011;19080;51.750;5.888;2023-12-28T01:50:06;5.90;;;2.60;;
32319;SDS011;19080;51.750;5.888;2023-12-28T01:52:33;4.88;;;2.35;;
32319;SDS011;19080;51.750;5.888;2023-12-28T01:55:01;5.63;;;2.70;;
32319;SDS011;19080;51.750;5.888;2023-12-28T01:57:29;4.60;;;2.67;;
32319;SDS011;19080;51.750;5.888;2023-12-28T01:59:56;3.95;;;2.20;;
32319;SDS011;19080;51.750;5.888;2023-12-28T02:02:27;9.27;;;2.97;;
32319;SDS011;19080;51.750;5.888;2023-12-28T02:04:55;5.55;;;2.85;;
32319;SDS011;19080;51.750;5.888;2023-12-28T02:07:22;6.00;;;2.38;;
32319;SDS011;19080;51.750;5.888;2023-12-28T02:09:51;5.57;;;2.20;;
32319;SDS011;19080;51.750;5.888;2023-12-28T02:12:18;4.45;;;2.35;;
32319;SDS011;19080;51.750;5.888;2023-12-28T02:14:44;5.47;;;2.47;;
32319;SDS011;19080;51.750;5.888;2023-12-28T02:17:14;5.85;;;2.30;;
32319;SDS011;19080;51.750;5.888;2023-12-28T02:19:48;4.72;;;2.17;;
32319;SDS011;19080;51.750;5.888;2023-12-28T02:22:16;4.07;;;2.65;;
32319;SDS011;19080;51.750;5.888;2023-12-28T02:27:41;3.03;;;2.03;;
32319;SDS011;19080;51.750;5.888;2023-12-28T02:30:10;4.60;;;2.13;;
32319;SDS011;19080;51.750;5.888;2023-12-28T02:32:39;5.28;;;2.40;;
32319;SDS011;19080;51.750;5.888;2023-12-28T02:35:42;4.80;;;1.95;;
32319;SDS011;19080;51.750;5.888;2023-12-28T02:38:11;3.80;;;2.50;;
32319;SDS011;19080;51.750;5.888;2023-12-28T02:40:42;6.05;;;2.30;;
32319;SDS011;19080;51.750;5.888;2023-12-28T02:43:11;5.03;;;2.03;;
32319;SDS011;19080;51.750;5.888;2023-12-28T02:45:38;5.57;;;2.40;;
32319;SDS011;19080;51.750;5.888;2023-12-28T02:48:06;4.93;;;2.30;;
32319;SDS011;19080;51.750;5.888;2023-12-28T02:50:34;3.42;;;1.90;;
32319;SDS011;19080;51.750;5.888;2023-12-28T02:53:01;4.38;;;2.25;;
32319;SDS011;19080;51.750;5.888;2023-12-28T02:55:28;6.30;;;2.42;;
32319;SDS011;19080;51.750;5.888;2023-12-28T02:57:56;4.38;;;1.92;;
32319;SDS011;19080;51.750;5.888;2023-12-28T03:00:27;5.67;;;2.17;;
32319;SDS011;19080;51.750;5.888;2023-12-28T03:02:54;7.60;;;2.08;;
32319;SDS011;19080;51.750;5.888;2023-12-28T03:05:21;7.60;;;2.63;;
32319;SDS011;19080;51.750;5.888;2023-12-28T03:07:48;8.07;;;2.40;;
32319;SDS011;19080;51.750;5.888;2023-12-28T03:10:15;5.85;;;2.40;;
32319;SDS011;19080;51.750;5.888;2023-12-28T03:12:42;5.38;;;2.42;;
32319;SDS011;19080;51.750;5.888;2023-12-28T03:15:09;3.20;;;1.90;;
32319;SDS011;19080;51.750;5.888;2023-12-28T03:17:36;5.78;;;2.25;;
32319;SDS011;19080;51.750;5.888;2023-12-28T03:20:04;5.32;;;2.40;;
32319;SDS011;19080;51.750;5.888;2023-12-28T03:22:31;3.08;;;1.80;;
32319;SDS011;19080;51.750;5.888;2023-12-28T03:24:58;3.70;;;1.80;;
32319;SDS011;19080;51.750;5.888;2023-12-28T03:27:25;5.53;;;2.30;;
32319;SDS011;19080;51.750;5.888;2023-12-28T03:29:54;6.85;;;1.95;;
32319;SDS011;19080;51.750;5.888;2023-12-28T03:32:21;3.53;;;1.77;;
32319;SDS011;19080;51.750;5.888;2023-12-28T03:34:49;7.68;;;2.30;;
32319;SDS011;19080;51.750;5.888;2023-12-28T03:37:16;2.50;;;1.88;;
32319;SDS011;19080;51.750;5.888;2023-12-28T03:39:42;3.90;;;2.00;;
32319;SDS011;19080;51.750;5.888;2023-12-28T03:42:09;4.00;;;2.08;;
32319;SDS011;19080;51.750;5.888;2023-12-28T03:44:36;5.75;;;2.35;;
32319;SDS011;19080;51.750;5.888;2023-12-28T03:47:03;4.50;;;1.67;;
32319;SDS011;19080;51.750;5.888;2023-12-28T03:49:30;4.50;;;2.15;;
32319;SDS011;19080;51.750;5.888;2023-12-28T03:51:56;3.90;;;1.38;;
32319;SDS011;19080;51.750;5.888;2023-12-28T03:54:23;4.72;;;1.90;;
32319;SDS011;19080;51.750;5.888;2023-12-28T03:56:50;4.30;;;1.75;;
32319;SDS011;19080;51.750;5.888;2023-12-28T03:59:17;6.82;;;2.20;;
32319;SDS011;19080;51.750;5.888;2023-12-28T04:01:44;4.53;;;2.55;;
32319;SDS011;19080;51.750;5.888;2023-12-28T04:04:11;5.90;;;2.00;;
32319;SDS011;19080;51.750;5.888;2023-12-28T04:06:38;5.20;;;2.45;;
32319;SDS011;19080;51.750;5.888;2023-12-28T04:09:05;7.38;;;2.00;;
32319;SDS011;19080;51.750;5.888;2023-12-28T04:11:32;3.35;;;1.52;;
32319;SDS011;19080;51.750;5.888;2023-12-28T04:13:59;7.10;;;2.35;;
32319;SDS011;19080;51.750;5.888;2023-12-28T04:16:26;7.53;;;1.73;;
32319;SDS011;19080;51.750;5.888;2023-12-28T04:18:53;7.75;;;1.80;;
32319;SDS011;19080;51.750;5.888;2023-12-28T04:21:20;4.57;;;1.73;;
32319;SDS011;19080;51.750;5.888;2023-12-28T04:23:48;6.88;;;1.83;;
32319;SDS011;19080;51.750;5.888;2023-12-28T04:26:17;5.45;;;1.80;;
32319;SDS011;19080;51.750;5.888;2023-12-28T04:28:44;5.97;;;1.85;;
32319;SDS011;19080;51.750;5.888;2023-12-28T04:31:11;11.30;;;1.80;;
32319;SDS011;19080;51.750;5.888;2023-12-28T04:33:37;6.28;;;1.60;;
32319;SDS011;19080;51.750;5.888;2023-12-28T04:36:05;10.10;;;2.08;;
32319;SDS011;19080;51.750;5.888;2023-12-28T04:38:32;6.40;;;1.90;;
32319;SDS011;19080;51.750;5.888;2023-12-28T04:41:00;9.65;;;2.00;;
32319;SDS011;19080;51.750;5.888;2023-12-28T04:43:28;8.30;;;2.13;;
32319;SDS011;19080;51.750;5.888;2023-12-28T04:45:55;8.57;;;2.00;;
32319;SDS011;19080;51.750;5.888;2023-12-28T04:48:22;7.50;;;2.15;;
32319;SDS011;19080;51.750;5.888;2023-12-28T04:50:50;8.73;;;1.85;;
32319;SDS011;19080;51.750;5.888;2023-12-28T04:53:19;12.88;;;2.42;;
32319;SDS011;19080;51.750;5.888;2023-12-28T04:55:46;9.18;;;1.95;;
32319;SDS011;19080;51.750;5.888;2023-12-28T04:58:13;7.65;;;1.92;;
32319;SDS011;19080;51.750;5.888;2023-12-28T05:00:40;10.43;;;2.70;;
32319;SDS011;19080;51.750;5.888;2023-12-28T05:03:07;6.10;;;1.90;;
32319;SDS011;19080;51.750;5.888;2023-12-28T05:05:34;7.72;;;2.20;;
32319;SDS011;19080;51.750;5.888;2023-12-28T05:08:01;7.05;;;2.00;;
32319;SDS011;19080;51.750;5.888;2023-12-28T05:10:28;10.85;;;2.17;;
32319;SDS011;19080;51.750;5.888;2023-12-28T05:12:55;6.22;;;1.90;;
32319;SDS011;19080;51.750;5.888;2023-12-28T05:15:27;13.38;;;2.05;;
32319;SDS011;19080;51.750;5.888;2023-12-28T05:17:55;8.85;;;2.38;;
32319;SDS011;19080;51.750;5.888;2023-12-28T05:20:23;11.75;;;2.42;;
32319;SDS011;19080;51.750;5.888;2023-12-28T05:22:49;9.05;;;2.15;;
32319;SDS011;19080;51.750;5.888;2023-12-28T05:25:16;8.20;;;2.15;;
32319;SDS011;19080;51.750;5.888;2023-12-28T05:27:43;10.15;;;2.30;;
32319;SDS011;19080;51.750;5.888;2023-12-28T05:30:10;6.25;;;1.88;;
32319;SDS011;19080;51.750;5.888;2023-12-28T05:32:38;15.50;;;2.47;;
32319;SDS011;19080;51.750;5.888;2023-12-28T05:35:05;10.00;;;2.15;;
32319;SDS011;19080;51.750;5.888;2023-12-28T05:37:32;12.80;;;2.35;;
32319;SDS011;19080;51.750;5.888;2023-12-28T05:39:59;11.30;;;2.65;;
32319;SDS011;19080;51.750;5.888;2023-12-28T05:42:26;8.15;;;1.88;;
32319;SDS011;19080;51.750;5.888;2023-12-28T05:44:52;12.90;;;2.55;;
32319;SDS011;19080;51.750;5.888;2023-12-28T05:47:19;11.95;;;2.28;;
32319;SDS011;19080;51.750;5.888;2023-12-28T05:49:46;9.90;;;2.38;;
32319;SDS011;19080;51.750;5.888;2023-12-28T05:52:13;12.48;;;2.60;;
32319;SDS011;19080;51.750;5.888;2023-12-28T05:54:42;12.23;;;2.20;;
32319;SDS011;19080;51.750;5.888;2023-12-28T05:57:10;14.80;;;2.40;;
32319;SDS011;19080;51.750;5.888;2023-12-28T05:59:38;9.77;;;2.15;;
32319;SDS011;19080;51.750;5.888;2023-12-28T06:02:06;11.95;;;2.63;;
32319;SDS011;19080;51.750;5.888;2023-12-28T06:04:33;8.88;;;2.08;;
32319;SDS011;19080;51.750;5.888;2023-12-28T06:07:03;9.07;;;2.25;;
32319;SDS011;19080;51.750;5.888;2023-12-28T06:09:31;10.98;;;2.40;;
32319;SDS011;19080;51.750;5.888;2023-12-28T06:11:58;12.18;;;2.17;;
32319;SDS011;19080;51.750;5.888;2023-12-28T06:14:24;9.15;;;2.80;;
32319;SDS011;19080;51.750;5.888;2023-12-28T06:16:51;10.70;;;2.63;;
32319;SDS011;19080;51.750;5.888;2023-12-28T06:19:18;15.40;;;3.22;;
32319;SDS011;19080;51.750;5.888;2023-12-28T06:21:45;13.13;;;2.58;;
32319;SDS011;19080;51.750;5.888;2023-12-28T06:24:12;9.57;;;2.60;;
32319;SDS011;19080;51.750;5.888;2023-12-28T06:26:42;9.35;;;2.10;;
32319;SDS011;19080;51.750;5.888;2023-12-28T06:29:09;12.23;;;2.60;;
32319;SDS011;19080;51.750;5.888;2023-12-28T06:31:37;15.85;;;2.78;;
32319;SDS011;19080;51.750;5.888;2023-12-28T06:34:07;12.30;;;3.20;;
32319;SDS011;19080;51.750;5.888;2023-12-28T06:36:34;8.80;;;2.50;;
32319;SDS011;19080;51.750;5.888;2023-12-28T06:39:03;12.70;;;3.05;;
32319;SDS011;19080;51.750;5.888;2023-12-28T06:41:30;15.63;;;3.20;;
32319;SDS011;19080;51.750;5.888;2023-12-28T06:43:56;9.63;;;2.30;;
32319;SDS011;19080;51.750;5.888;2023-12-28T06:46:23;14.13;;;2.97;;
32319;SDS011;19080;51.750;5.888;2023-12-28T06:48:50;15.05;;;2.75;;
32319;SDS011;19080;51.750;5.888;2023-12-28T06:51:17;10.25;;;2.60;;
32319;SDS011;19080;51.750;5.888;2023-12-28T06:53:48;11.32;;;3.10;;
32319;SDS011;19080;51.750;5.888;2023-12-28T06:56:16;13.50;;;3.25;;
32319;SDS011;19080;51.750;5.888;2023-12-28T06:58:43;10.88;;;3.50;;
32319;SDS011;19080;51.750;5.888;2023-12-28T07:01:10;10.93;;;2.55;;
32319;SDS011;19080;51.750;5.888;2023-12-28T07:03:39;12.25;;;2.53;;
32319;SDS011;19080;51.750;5.888;2023-12-28T07:06:06;15.95;;;3.20;;
32319;SDS011;19080;51.750;5.888;2023-12-28T07:08:33;9.00;;;2.20;;
32319;SDS011;19080;51.750;5.888;2023-12-28T07:11:02;15.60;;;3.35;;
32319;SDS011;19080;51.750;5.888;2023-12-28T07:13:30;12.05;;;3.20;;
32319;SDS011;19080;51.750;5.888;2023-12-28T07:15:57;14.30;;;2.80;;
32319;SDS011;19080;51.750;5.888;2023-12-28T07:18:26;12.23;;;2.80;;
32319;SDS011;19080;51.750;5.888;2023-12-28T07:20:53;12.75;;;3.03;;
32319;SDS011;19080;51.750;5.888;2023-12-28T07:23:20;13.43;;;2.92;;
32319;SDS011;19080;51.750;5.888;2023-12-28T07:25:47;10.82;;;2.83;;
32319;SDS011;19080;51.750;5.888;2023-12-28T07:28:14;19.23;;;2.97;;
32319;SDS011;19080;51.750;5.888;2023-12-28T07:30:40;13.95;;;3.15;;
32319;SDS011;19080;51.750;5.888;2023-12-28T07:33:08;18.40;;;2.70;;
32319;SDS011;19080;51.750;5.888;2023-12-28T07:35:34;11.55;;;2.80;;
32319;SDS011;19080;51.750;5.888;2023-12-28T07:38:01;11.20;;;2.17;;
32319;SDS011;19080;51.750;5.888;2023-12-28T07:40:28;15.50;;;2.67;;
32319;SDS011;19080;51.750;5.888;2023-12-28T07:42:55;19.63;;;4.15;;
32319;SDS011;19080;51.750;5.888;2023-12-28T07:45:23;17.10;;;2.63;;
32319;SDS011;19080;51.750;5.888;2023-12-28T07:47:51;18.55;;;3.50;;
32319;SDS011;19080;51.750;5.888;2023-12-28T07:50:18;16.40;;;4.63;;
32319;SDS011;19080;51.750;5.888;2023-12-28T07:52:46;15.60;;;4.00;;
32319;SDS011;19080;51.750;5.888;2023-12-28T07:55:13;12.93;;;2.53;;
32319;SDS011;19080;51.750;5.888;2023-12-28T07:57:41;10.60;;;2.60;;
32319;SDS011;19080;51.750;5.888;2023-12-28T08:00:09;21.35;;;3.13;;
32319;SDS011;19080;51.750;5.888;2023-12-28T08:02:36;12.50;;;2.60;;
32319;SDS011;19080;51.750;5.888;2023-12-28T08:05:03;17.63;;;3.35;;
32319;SDS011;19080;51.750;5.888;2023-12-28T08:07:30;18.70;;;3.58;;
32319;SDS011;19080;51.750;5.888;2023-12-28T08:09:57;12.60;;;3.38;;
32319;SDS011;19080;51.750;5.888;2023-12-28T08:12:24;14.50;;;3.65;;
32319;SDS011;19080;51.750;5.888;2023-12-28T08:14:54;15.52;;;2.95;;
32319;SDS011;19080;51.750;5.888;2023-12-28T08:17:21;15.35;;;3.17;;
32319;SDS011;19080;51.750;5.888;2023-12-28T08:19:48;13.32;;;2.90;;
32319;SDS011;19080;51.750;5.888;2023-12-28T08:22:15;15.30;;;3.28;;
32319;SDS011;19080;51.750;5.888;2023-12-28T08:24:42;19.77;;;3.33;;
32319;SDS011;19080;51.750;5.888;2023-12-28T08:27:09;16.92;;;3.17;;
32319;SDS011;19080;51.750;5.888;2023-12-28T08:29:36;14.90;;;3.08;;
32319;SDS011;19080;51.750;5.888;2023-12-28T08:32:03;14.15;;;3.30;;
32319;SDS011;19080;51.750;5.888;2023-12-28T08:34:30;15.32;;;3.78;;
32319;SDS011;19080;51.750;5.888;2023-12-28T08:36:57;20.23;;;3.35;;
32319;SDS011;19080;51.750;5.888;2023-12-28T08:39:24;14.98;;;3.40;;
32319;SDS011;19080;51.750;5.888;2023-12-28T08:41:51;18.00;;;3.58;;
32319;SDS011;19080;51.750;5.888;2023-12-28T08:44:18;13.20;;;2.90;;
32319;SDS011;19080;51.750;5.888;2023-12-28T08:46:44;16.98;;;3.08;;
32319;SDS011;19080;51.750;5.888;2023-12-28T08:49:12;19.60;;;3.08;;
32319;SDS011;19080;51.750;5.888;2023-12-28T08:51:39;16.77;;;3.47;;
32319;SDS011;19080;51.750;5.888;2023-12-28T08:54:10;20.67;;;3.10;;
32319;SDS011;19080;51.750;5.888;2023-12-28T08:56:37;17.30;;;2.90;;
32319;SDS011;19080;51.750;5.888;2023-12-28T08:59:03;16.17;;;3.17;;
32319;SDS011;19080;51.750;5.888;2023-12-28T09:01:30;22.80;;;3.20;;
32319;SDS011;19080;51.750;5.888;2023-12-28T09:03:57;14.18;;;2.95;;
32319;SDS011;19080;51.750;5.888;2023-12-28T09:06:25;16.65;;;3.67;;
32319;SDS011;19080;51.750;5.888;2023-12-28T09:08:52;16.85;;;3.10;;
32319;SDS011;19080;51.750;5.888;2023-12-28T09:11:20;13.20;;;3.45;;
32319;SDS011;19080;51.750;5.888;2023-12-28T09:13:48;13.50;;;3.13;;
32319;SDS011;19080;51.750;5.888;2023-12-28T09:16:16;14.95;;;3.38;;
32319;SDS011;19080;51.750;5.888;2023-12-28T09:18:43;17.63;;;3.00;;
32319;SDS011;19080;51.750;5.888;2023-12-28T09:21:10;13.60;;;2.75;;
32319;SDS011;19080;51.750;5.888;2023-12-28T09:23:37;18.52;;;2.95;;
32319;SDS011;19080;51.750;5.888;2023-12-28T09:26:05;13.20;;;2.90;;
32319;SDS011;19080;51.750;5.888;2023-12-28T09:28:32;18.40;;;4.22;;
32319;SDS011;19080;51.750;5.888;2023-12-28T09:31:00;19.65;;;3.50;;
32319;SDS011;19080;51.750;5.888;2023-12-28T09:33:28;22.25;;;3.97;;
32319;SDS011;19080;51.750;5.888;2023-12-28T09:35:55;14.60;;;3.47;;
32319;SDS011;19080;51.750;5.888;2023-12-28T09:38:22;15.35;;;2.85;;
32319;SDS011;19080;51.750;5.888;2023-12-28T09:40:52;18.17;;;3.40;;
32319;SDS011;19080;51.750;5.888;2023-12-28T09:45:53;14.55;;;3.40;;
32319;SDS011;19080;51.750;5.888;2023-12-28T09:48:21;16.40;;;2.90;;
32319;SDS011;19080;51.750;5.888;2023-12-28T09:50:50;16.85;;;4.10;;
32319;SDS011;19080;51.750;5.888;2023-12-28T09:53:24;14.75;;;2.90;;
32319;SDS011;19080;51.750;5.888;2023-12-28T09:55:52;12.05;;;2.80;;
32319;SDS011;19080;51.750;5.888;2023-12-28T09:58:20;15.15;;;3.38;;
32319;SDS011;19080;51.750;5.888;2023-12-28T10:00:49;18.40;;;3.25;;
32319;SDS011;19080;51.750;5.888;2023-12-28T10:03:17;12.80;;;3.03;;
32319;SDS011;19080;51.750;5.888;2023-12-28T10:05:44;18.90;;;3.22;;
32319;SDS011;19080;51.750;5.888;2023-12-28T10:08:13;20.15;;;3.78;;
32319;SDS011;19080;51.750;5.888;2023-12-28T10:10:44;20.70;;;3.22;;
32319;SDS011;19080;51.750;5.888;2023-12-28T10:13:17;23.75;;;3.42;;
32319;SDS011;19080;51.750;5.888;2023-12-28T10:15:44;18.30;;;3.53;;
32319;SDS011;19080;51.750;5.888;2023-12-28T10:18:11;18.92;;;3.00;;
32319;SDS011;19080;51.750;5.888;2023-12-28T10:20:38;19.67;;;2.92;;
32319;SDS011;19080;51.750;5.888;2023-12-28T10:23:05;16.17;;;3.67;;
32319;SDS011;19080;51.750;5.888;2023-12-28T10:25:32;13.85;;;3.10;;
32319;SDS011;19080;51.750;5.888;2023-12-28T10:28:03;17.73;;;3.30;;
32319;SDS011;19080;51.750;5.888;2023-12-28T10:30:32;16.77;;;3.67;;
32319;SDS011;19080;51.750;5.888;2023-12-28T10:32:59;14.52;;;2.97;;
32319;SDS011;19080;51.750;5.888;2023-12-28T10:35:27;16.48;;;3.22;;
32319;SDS011;19080;51.750;5.888;2023-12-28T10:37:54;13.65;;;2.88;;
32319;SDS011;19080;51.750;5.888;2023-12-28T10:40:30;12.60;;;2.83;;
32319;SDS011;19080;51.750;5.888;2023-12-28T10:43:02;10.82;;;2.70;;
32319;SDS011;19080;51.750;5.888;2023-12-28T10:45:32;16.10;;;3.20;;
32319;SDS011;19080;51.750;5.888;2023-12-28T10:48:04;13.15;;;2.63;;
32319;SDS011;19080;51.750;5.888;2023-12-28T10:50:46;20.65;;;3.45;;
32319;SDS011;19080;51.750;5.888;2023-12-28T10:59:17;21.67;;;3.92;;
32319;SDS011;19080;51.750;5.888;2023-12-28T11:01:56;20.20;;;3.67;;
32319;SDS011;19080;51.750;5.888;2023-12-28T11:06:58;14.90;;;3.08;;
32319;SDS011;19080;51.750;5.888;2023-12-28T11:09:30;15.63;;;3.83;;
32319;SDS011;19080;51.750;5.888;2023-12-28T11:11:57;18.58;;;2.92;;
32319;SDS011;19080;51.750;5.888;2023-12-28T11:14:27;17.52;;;3.85;;
32319;SDS011;19080;51.750;5.888;2023-12-28T11:16:55;14.48;;;3.30;;
32319;SDS011;19080;51.750;5.888;2023-12-28T11:19:25;12.48;;;3.30;;
32319;SDS011;19080;51.750;5.888;2023-12-28T11:21:54;14.82;;;3.40;;
32319;SDS011;19080;51.750;5.888;2023-12-28T11:24:23;12.20;;;2.72;;
32319;SDS011;19080;51.750;5.888;2023-12-28T11:26:54;13.45;;;3.22;;
32319;SDS011;19080;51.750;5.888;2023-12-28T11:29:21;13.70;;;2.95;;
32319;SDS011;19080;51.750;5.888;2023-12-28T11:31:53;13.65;;;3.58;;
32319;SDS011;19080;51.750;5.888;2023-12-28T11:34:24;16.83;;;3.40;;
32319;SDS011;19080;51.750;5.888;2023-12-28T11:36:52;15.48;;;3.00;;
32319;SDS011;19080;51.750;5.888;2023-12-28T11:39:31;15.70;;;2.97;;
32319;SDS011;19080;51.750;5.888;2023-12-28T11:44:31;16.60;;;3.38;;
32319;SDS011;19080;51.750;5.888;2023-12-28T11:49:50;18.90;;;3.95;;
32319;SDS011;19080;51.750;5.888;2023-12-28T11:52:25;16.83;;;4.10;;
32319;SDS011;19080;51.750;5.888;2023-12-28T11:54:54;19.42;;;3.42;;
32319;SDS011;19080;51.750;5.888;2023-12-28T11:57:22;17.85;;;3.50;;
32319;SDS011;19080;51.750;5.888;2023-12-28T11:59:53;17.05;;;4.47;;
32319;SDS011;19080;51.750;5.888;2023-12-28T12:02:23;21.48;;;8.40;;
32319;SDS011;19080;51.750;5.888;2023-12-28T12:04:51;16.42;;;5.20;;
32319;SDS011;19080;51.750;5.888;2023-12-28T12:07:21;19.27;;;4.35;;
32319;SDS011;19080;51.750;5.888;2023-12-28T12:09:48;15.15;;;4.28;;
32319;SDS011;19080;51.750;5.888;2023-12-28T12:12:15;14.55;;;3.63;;
32319;SDS011;19080;51.750;5.888;2023-12-28T12:14:42;14.68;;;3.20;;
32319;SDS011;19080;51.750;5.888;2023-12-28T12:17:09;16.20;;;3.25;;
32319;SDS011;19080;51.750;5.888;2023-12-28T12:19:36;18.38;;;3.85;;
32319;SDS011;19080;51.750;5.888;2023-12-28T12:22:04;13.70;;;2.97;;
32319;SDS011;19080;51.750;5.888;2023-12-28T12:24:31;12.48;;;3.13;;
32319;SDS011;19080;51.750;5.888;2023-12-28T12:27:00;23.58;;;4.05;;
32319;SDS011;19080;51.750;5.888;2023-12-28T12:29:31;21.15;;;3.88;;
32319;SDS011;19080;51.750;5.888;2023-12-28T12:31:58;20.42;;;4.28;;
32319;SDS011;19080;51.750;5.888;2023-12-28T12:34:25;22.05;;;3.88;;
32319;SDS011;19080;51.750;5.888;2023-12-28T12:36:52;19.08;;;4.70;;
32319;SDS011;19080;51.750;5.888;2023-12-28T12:39:24;15.77;;;3.67;;
32319;SDS011;19080;51.750;5.888;2023-12-28T12:41:52;18.38;;;3.85;;
32319;SDS011;19080;51.750;5.888;2023-12-28T12:44:19;25.52;;;4.15;;
32319;SDS011;19080;51.750;5.888;2023-12-28T12:46:47;13.93;;;3.28;;
32319;SDS011;19080;51.750;5.888;2023-12-28T12:49:13;18.02;;;3.70;;
32319;SDS011;19080;51.750;5.888;2023-12-28T12:51:44;16.40;;;3.40;;
32319;SDS011;19080;51.750;5.888;2023-12-28T12:54:11;14.15;;;3.53;;
32319;SDS011;19080;51.750;5.888;2023-12-28T12:56:38;16.63;;;3.85;;
32319;SDS011;19080;51.750;5.888;2023-12-28T12:59:11;16.33;;;3.65;;
32319;SDS011;19080;51.750;5.888;2023-12-28T13:04:11;21.52;;;3.83;;
32319;SDS011;19080;51.750;5.888;2023-12-28T13:06:38;15.60;;;3.58;;
32319;SDS011;19080;51.750;5.888;2023-12-28T13:09:05;17.13;;;3.65;;
32319;SDS011;19080;51.750;5.888;2023-12-28T13:11:33;21.55;;;4.50;;
32319;SDS011;19080;51.750;5.888;2023-12-28T13:14:00;16.67;;;3.67;;
32319;SDS011;19080;51.750;5.888;2023-12-28T13:16:27;20.48;;;3.25;;
32319;SDS011;19080;51.750;5.888;2023-12-28T13:18:54;18.48;;;4.22;;
32319;SDS011;19080;51.750;5.888;2023-12-28T13:21:22;17.45;;;3.65;;
32319;SDS011;19080;51.750;5.888;2023-12-28T13:23:49;16.75;;;3.60;;
32319;SDS011;19080;51.750;5.888;2023-12-28T13:26:15;17.98;;;3.58;;
32319;SDS011;19080;51.750;5.888;2023-12-28T13:28:42;15.27;;;3.78;;
32319;SDS011;19080;51.750;5.888;2023-12-28T13:31:09;15.90;;;3.20;;
32319;SDS011;19080;51.750;5.888;2023-12-28T13:33:36;16.15;;;3.22;;
32319;SDS011;19080;51.750;5.888;2023-12-28T13:36:03;16.27;;;3.10;;
32319;SDS011;19080;51.750;5.888;2023-12-28T13:38:30;23.50;;;4.47;;
32319;SDS011;19080;51.750;5.888;2023-12-28T13:40:57;15.43;;;4.18;;
32319;SDS011;19080;51.750;5.888;2023-12-28T13:43:24;22.77;;;3.70;;
32319;SDS011;19080;51.750;5.888;2023-12-28T13:45:50;17.50;;;4.38;;
32319;SDS011;19080;51.750;5.888;2023-12-28T13:48:17;17.85;;;3.75;;
32319;SDS011;19080;51.750;5.888;2023-12-28T13:50:44;16.83;;;4.25;;
32319;SDS011;19080;51.750;5.888;2023-12-28T13:53:11;15.25;;;3.47;;
32319;SDS011;19080;51.750;5.888;2023-12-28T13:55:37;16.77;;;3.15;;
32319;SDS011;19080;51.750;5.888;2023-12-28T13:58:04;20.73;;;3.95;;
32319;SDS011;19080;51.750;5.888;2023-12-28T14:00:31;18.83;;;3.42;;
32319;SDS011;19080;51.750;5.888;2023-12-28T14:02:57;13.23;;;3.55;;
32319;SDS011;19080;51.750;5.888;2023-12-28T14:05:26;11.93;;;3.03;;
32319;SDS011;19080;51.750;5.888;2023-12-28T14:07:56;16.20;;;3.20;;
32319;SDS011;19080;51.750;5.888;2023-12-28T14:10:22;14.18;;;3.47;;
32319;SDS011;19080;51.750;5.888;2023-12-28T14:12:49;18.13;;;4.72;;
32319;SDS011;19080;51.750;5.888;2023-12-28T14:15:16;17.85;;;3.90;;
32319;SDS011;19080;51.750;5.888;2023-12-28T14:17:43;14.55;;;3.40;;
32319;SDS011;19080;51.750;5.888;2023-12-28T14:20:10;17.73;;;6.97;;
32319;SDS011;19080;51.750;5.888;2023-12-28T14:22:38;21.27;;;5.22;;
32319;SDS011;19080;51.750;5.888;2023-12-28T14:25:05;22.45;;;4.55;;
32319;SDS011;19080;51.750;5.888;2023-12-28T14:27:32;19.77;;;5.15;;
32319;SDS011;19080;51.750;5.888;2023-12-28T14:29:59;16.77;;;4.30;;
32319;SDS011;19080;51.750;5.888;2023-12-28T14:32:30;23.13;;;4.38;;
32319;SDS011;19080;51.750;5.888;2023-12-28T14:34:57;19.30;;;4.57;;
32319;SDS011;19080;51.750;5.888;2023-12-28T14:37:24;21.13;;;4.88;;
32319;SDS011;19080;51.750;5.888;2023-12-28T14:39:51;16.42;;;5.22;;
32319;SDS011;19080;51.750;5.888;2023-12-28T14:42:18;14.93;;;4.53;;
32319;SDS011;19080;51.750;5.888;2023-12-28T14:44:44;21.40;;;4.72;;
32319;SDS011;19080;51.750;5.888;2023-12-28T14:47:11;16.52;;;3.85;;
32319;SDS011;19080;51.750;5.888;2023-12-28T14:49:38;20.85;;;3.95;;
32319;SDS011;19080;51.750;5.888;2023-12-28T14:52:05;13.80;;;3.60;;
32319;SDS011;19080;51.750;5.888;2023-12-28T14:54:31;17.45;;;3.33;;
32319;SDS011;19080;51.750;5.888;2023-12-28T14:56:58;16.77;;;3.38;;
32319;SDS011;19080;51.750;5.888;2023-12-28T14:59:25;17.02;;;3.05;;
32319;SDS011;19080;51.750;5.888;2023-12-28T15:01:52;15.95;;;3.67;;
32319;SDS011;19080;51.750;5.888;2023-12-28T15:04:18;16.80;;;3.45;;
32319;SDS011;19080;51.750;5.888;2023-12-28T15:06:51;15.07;;;2.75;;